createdAt,value
2018-09-24T00:00:31.020Z,1018.03
2018-09-24T00:01:30.999Z,1018.05
2018-09-24T00:02:30.974Z,1018.09
2018-09-24T00:03:30.967Z,1018.14
2018-09-24T00:04:30.933Z,1018.12
2018-09-24T00:05:30.926Z,1018.17
2018-09-24T00:06:30.889Z,1018.18
2018-09-24T00:07:30.871Z,1018.22
2018-09-24T00:08:30.897Z,1018.21
2018-09-24T00:09:30.840Z,1018.22
2018-09-24T00:10:30.805Z,1018.23
2018-09-24T00:11:30.786Z,1018.28
2018-09-24T00:12:30.761Z,1018.29
2018-09-24T00:13:30.739Z,1018.32
2018-09-24T00:14:30.719Z,1018.29
2018-09-24T00:15:30.703Z,1018.29
2018-09-24T00:16:30.680Z,1018.36
2018-09-24T00:17:30.751Z,1018.33
2018-09-24T00:18:30.642Z,1018.34
2018-09-24T00:19:30.616Z,1018.39
2018-09-24T00:20:30.592Z,1018.40
2018-09-24T00:21:30.576Z,1018.46
2018-09-24T00:22:30.552Z,1018.50
2018-09-24T00:23:30.529Z,1018.50
2018-09-24T00:24:30.510Z,1018.49
2018-09-24T00:25:30.486Z,1018.52
2018-09-24T00:26:30.471Z,1018.52
2018-09-24T00:27:30.445Z,1018.56
2018-09-24T00:28:30.422Z,1018.55
2018-09-24T00:29:30.403Z,1018.62
2018-09-24T00:30:30.382Z,1018.61
2018-09-24T00:31:30.373Z,1018.61
2018-09-24T00:32:30.347Z,1018.63
2018-09-24T00:33:30.318Z,1018.64
2018-09-24T00:34:30.295Z,1018.66
2018-09-24T00:35:30.284Z,1018.67
2018-09-24T00:36:30.261Z,1018.69
2018-09-24T00:37:30.232Z,1018.69
2018-09-24T00:38:30.212Z,1018.67
2018-09-24T00:39:30.189Z,1018.68
2018-09-24T00:40:30.169Z,1018.70
2018-09-24T00:41:30.147Z,1018.77
2018-09-24T00:42:30.126Z,1018.77
2018-09-24T00:43:30.135Z,1018.79
2018-09-24T00:44:30.081Z,1018.83
2018-09-24T00:45:30.067Z,1018.88
2018-09-24T00:46:30.041Z,1018.79
2018-09-24T00:47:30.020Z,1018.77
2018-09-24T00:48:29.998Z,1018.84
2018-09-24T00:49:29.977Z,1018.82
2018-09-24T00:50:29.998Z,1018.86
2018-09-24T00:51:29.934Z,1018.88
2018-09-24T00:52:29.912Z,1018.90
2018-09-24T00:53:29.940Z,1018.90
2018-09-24T00:54:29.870Z,1018.93
2018-09-24T00:55:29.847Z,1019.01
2018-09-24T00:56:29.825Z,1018.97
2018-09-24T00:57:29.814Z,1019.02
2018-09-24T00:58:29.791Z,1019.02
2018-09-24T00:59:29.780Z,1018.98
2018-09-24T01:00:29.741Z,1019.02
2018-09-24T01:01:29.719Z,1019.04
2018-09-24T01:02:29.699Z,1018.97
2018-09-24T01:03:29.678Z,1018.96
2018-09-24T01:04:29.656Z,1019.01
2018-09-24T01:05:29.634Z,1019.03
2018-09-24T01:06:29.614Z,1019.07
2018-09-24T01:07:29.595Z,1019.05
2018-09-24T01:08:29.570Z,1019.11
2018-09-24T01:09:29.558Z,1019.10
2018-09-24T01:10:29.545Z,1019.17
2018-09-24T01:11:29.505Z,1019.16
2018-09-24T01:12:29.491Z,1019.20
2018-09-24T01:13:29.463Z,1019.26
2018-09-24T01:14:29.440Z,1019.29
2018-09-24T01:15:29.474Z,1019.32
2018-09-24T01:16:29.397Z,1019.33
2018-09-24T01:17:29.378Z,1019.34
2018-09-24T01:18:29.434Z,1019.43
2018-09-24T01:19:29.334Z,1019.45
2018-09-24T01:20:29.312Z,1019.48
2018-09-24T01:21:29.295Z,1019.53
2018-09-24T01:22:29.270Z,1019.53
2018-09-24T01:23:29.253Z,1019.57
2018-09-24T01:24:29.226Z,1019.58
2018-09-24T01:25:29.207Z,1019.61
2018-09-24T01:26:29.184Z,1019.62
2018-09-24T01:27:29.163Z,1019.58
2018-09-24T01:28:29.140Z,1019.63
2018-09-24T01:29:29.173Z,1019.61
2018-09-24T01:30:29.102Z,1019.65
2018-09-24T01:31:29.079Z,1019.63
2018-09-24T01:32:29.055Z,1019.64
2018-09-24T01:33:29.034Z,1019.65
2018-09-24T01:34:29.010Z,1019.62
2018-09-24T01:35:28.993Z,1019.65
2018-09-24T01:36:28.968Z,1019.64
2018-09-24T01:37:28.951Z,1019.66
2018-09-24T01:38:28.927Z,1019.68
2018-09-24T01:39:28.905Z,1019.72
2018-09-24T01:40:28.884Z,1019.74
2018-09-24T01:41:28.861Z,1019.81
2018-09-24T01:42:28.843Z,1019.83
2018-09-24T01:43:28.819Z,1019.83
2018-09-24T01:44:28.803Z,1019.86
2018-09-24T01:45:28.774Z,1019.90
2018-09-24T01:46:28.753Z,1019.86
2018-09-24T01:47:28.733Z,1019.92
2018-09-24T01:48:28.712Z,1019.90
2018-09-24T01:49:28.690Z,1019.98
2018-09-24T01:50:28.671Z,1019.97
2018-09-24T01:51:28.652Z,1020.00
2018-09-24T01:52:28.625Z,1020.01
2018-09-24T01:53:28.602Z,1019.99
2018-09-24T01:54:28.584Z,1019.97
2018-09-24T01:55:28.560Z,1019.99
2018-09-24T01:56:28.542Z,1019.98
2018-09-24T01:57:28.517Z,1020.04
2018-09-24T01:58:28.496Z,1020.03
2018-09-24T01:59:28.492Z,1020.02
2018-09-24T02:00:28.453Z,1020.08
2018-09-24T02:01:28.430Z,1020.12
2018-09-24T02:02:28.409Z,1020.05
2018-09-24T02:03:28.387Z,1020.05
2018-09-24T02:04:28.366Z,1020.11
2018-09-24T02:05:28.344Z,1020.11
2018-09-24T02:06:28.325Z,1020.10
2018-09-24T02:07:28.301Z,1020.08
2018-09-24T02:08:28.282Z,1020.10
2018-09-24T02:09:28.262Z,1020.15
2018-09-24T02:10:28.245Z,1020.18
2018-09-24T02:11:28.222Z,1020.22
2018-09-24T02:12:28.192Z,1020.23
2018-09-24T02:13:28.171Z,1020.26
2018-09-24T02:14:28.153Z,1020.28
2018-09-24T02:15:28.129Z,1020.31
2018-09-24T02:16:28.107Z,1020.34
2018-09-24T02:17:28.086Z,1020.32
2018-09-24T02:18:28.072Z,1020.33
2018-09-24T02:19:28.047Z,1020.36
2018-09-24T02:20:28.020Z,1020.39
2018-09-24T02:21:28.075Z,1020.37
2018-09-24T02:22:27.978Z,1020.34
2018-09-24T02:23:27.968Z,1020.39
2018-09-24T02:24:27.979Z,1020.39
2018-09-24T02:25:27.921Z,1020.42
2018-09-24T02:26:27.902Z,1020.45
2018-09-24T02:27:27.873Z,1020.43
2018-09-24T02:28:27.850Z,1020.46
2018-09-24T02:29:27.825Z,1020.47
2018-09-24T02:30:27.813Z,1020.47
2018-09-24T02:31:27.783Z,1020.49
2018-09-24T02:32:27.768Z,1020.50
2018-09-24T02:33:27.742Z,1020.52
2018-09-24T02:34:27.722Z,1020.53
2018-09-24T02:35:27.699Z,1020.54
2018-09-24T02:36:27.674Z,1020.51
2018-09-24T02:37:27.653Z,1020.55
2018-09-24T02:38:27.632Z,1020.53
2018-09-24T02:39:27.612Z,1020.56
2018-09-24T02:40:27.587Z,1020.57
2018-09-24T02:41:27.570Z,1020.57
2018-09-24T02:42:27.545Z,1020.63
2018-09-24T02:43:27.521Z,1020.57
2018-09-24T02:44:27.510Z,1020.57
2018-09-24T02:45:27.481Z,1020.58
2018-09-24T02:46:27.482Z,1020.59
2018-09-24T02:47:27.437Z,1020.63
2018-09-24T02:48:27.414Z,1020.65
2018-09-24T02:49:27.392Z,1020.66
2018-09-24T02:50:27.370Z,1020.66
2018-09-24T02:51:27.349Z,1020.70
2018-09-24T02:52:27.326Z,1020.69
2018-09-24T02:53:27.310Z,1020.73
2018-09-24T02:54:27.287Z,1020.73
2018-09-24T02:55:27.260Z,1020.72
2018-09-24T02:56:27.239Z,1020.76
2018-09-24T02:57:27.220Z,1020.78
2018-09-24T02:58:27.196Z,1020.82
2018-09-24T02:59:27.173Z,1020.79
2018-09-24T03:00:27.151Z,1020.83
2018-09-24T03:01:27.219Z,1020.85
2018-09-24T03:02:27.108Z,1020.85
2018-09-24T03:03:27.089Z,1020.94
2018-09-24T03:04:27.063Z,1020.91
2018-09-24T03:05:27.047Z,1020.96
2018-09-24T03:06:27.023Z,1020.96
2018-09-24T03:07:26.999Z,1021.03
2018-09-24T03:08:26.983Z,1021.05
2018-09-24T03:09:26.962Z,1021.03
2018-09-24T03:10:26.934Z,1021.03
2018-09-24T03:11:26.916Z,1021.12
2018-09-24T03:12:26.894Z,1021.13
2018-09-24T03:13:26.870Z,1021.14
2018-09-24T03:14:26.849Z,1021.16
2018-09-24T03:15:26.833Z,1021.13
2018-09-24T03:16:26.804Z,1021.16
2018-09-24T03:17:26.783Z,1021.19
2018-09-24T03:18:26.761Z,1021.18
2018-09-24T03:19:26.739Z,1021.20
2018-09-24T03:20:26.716Z,1021.20
2018-09-24T03:21:26.694Z,1021.28
2018-09-24T03:22:26.681Z,1021.28
2018-09-24T03:23:26.650Z,1021.31
2018-09-24T03:24:26.627Z,1021.31
2018-09-24T03:25:26.619Z,1021.31
2018-09-24T03:26:26.668Z,1021.35
2018-09-24T03:27:26.572Z,1021.35
2018-09-24T03:28:26.544Z,1021.33
2018-09-24T03:29:26.519Z,1021.34
2018-09-24T03:30:26.499Z,1021.34
2018-09-24T03:31:26.478Z,1021.35
2018-09-24T03:32:26.464Z,1021.41
2018-09-24T03:33:26.434Z,1021.42
2018-09-24T03:34:26.412Z,1021.41
2018-09-24T03:35:26.389Z,1021.43
2018-09-24T03:36:26.366Z,1021.44
2018-09-24T03:37:26.345Z,1021.43
2018-09-24T03:38:26.497Z,1021.48
2018-09-24T03:39:26.302Z,1021.44
2018-09-24T03:40:26.279Z,1021.48
2018-09-24T03:41:26.362Z,1021.51
2018-09-24T03:42:26.237Z,1021.44
2018-09-24T03:43:26.217Z,1021.49
2018-09-24T03:44:26.196Z,1021.48
2018-09-24T03:45:26.169Z,1021.47
2018-09-24T03:46:26.147Z,1021.46
2018-09-24T03:47:26.125Z,1021.50
2018-09-24T03:48:26.108Z,1021.50
2018-09-24T03:49:26.145Z,1021.54
2018-09-24T03:50:26.061Z,1021.55
2018-09-24T03:51:26.045Z,1021.52
2018-09-24T03:52:26.024Z,1021.58
2018-09-24T03:53:25.995Z,1021.59
2018-09-24T03:54:25.977Z,1021.58
2018-09-24T03:55:25.951Z,1021.60
2018-09-24T03:56:25.932Z,1021.58
2018-09-24T03:57:25.906Z,1021.59
2018-09-24T03:58:25.885Z,1021.61
2018-09-24T03:59:25.871Z,1021.56
2018-09-24T04:00:25.842Z,1021.61
2018-09-24T04:01:25.819Z,1021.61
2018-09-24T04:02:25.798Z,1021.60
2018-09-24T04:03:25.781Z,1021.56
2018-09-24T04:04:25.788Z,1021.64
2018-09-24T04:05:25.735Z,1021.60
2018-09-24T04:06:25.710Z,1021.63
2018-09-24T04:07:25.692Z,1021.67
2018-09-24T04:08:25.675Z,1021.65
2018-09-24T04:09:25.726Z,1021.66
2018-09-24T04:10:25.625Z,1021.66
2018-09-24T04:11:25.611Z,1021.72
2018-09-24T04:12:25.582Z,1021.69
2018-09-24T04:13:25.561Z,1021.74
2018-09-24T04:14:25.640Z,1021.75
2018-09-24T04:15:25.525Z,1021.81
2018-09-24T04:16:25.499Z,1021.84
2018-09-24T04:17:25.473Z,1021.85
2018-09-24T04:18:25.451Z,1021.83
2018-09-24T04:19:25.432Z,1021.85
2018-09-24T04:20:25.410Z,1021.90
2018-09-24T04:21:25.384Z,1021.91
2018-09-24T04:22:25.374Z,1021.95
2018-09-24T04:23:25.346Z,1021.93
2018-09-24T04:24:25.316Z,1021.90
2018-09-24T04:25:25.295Z,1022.00
2018-09-24T04:26:25.436Z,1022.01
2018-09-24T04:27:25.251Z,1022.05
2018-09-24T04:28:25.229Z,1022.07
2018-09-24T04:29:25.207Z,1022.09
2018-09-24T04:30:25.184Z,1022.14
2018-09-24T04:31:25.172Z,1022.14
2018-09-24T04:32:25.143Z,1022.10
2018-09-24T04:33:25.120Z,1022.09
2018-09-24T04:34:25.101Z,1022.14
2018-09-24T04:35:25.075Z,1022.15
2018-09-24T04:36:25.053Z,1022.09
2018-09-24T04:37:25.031Z,1022.11
2018-09-24T04:38:25.012Z,1022.16
2018-09-24T04:39:25.072Z,1022.15
2018-09-24T04:40:24.969Z,1022.21
2018-09-24T04:41:24.943Z,1022.22
2018-09-24T04:42:24.922Z,1022.24
2018-09-24T04:43:24.902Z,1022.29
2018-09-24T04:44:24.928Z,1022.26
2018-09-24T04:45:24.857Z,1022.25
2018-09-24T04:46:24.839Z,1022.32
2018-09-24T04:47:24.815Z,1022.33
2018-09-24T04:48:24.790Z,1022.29
2018-09-24T04:49:24.769Z,1022.32
2018-09-24T04:50:24.750Z,1022.35
2018-09-24T04:51:24.724Z,1022.40
2018-09-24T04:52:24.702Z,1022.40
2018-09-24T04:53:24.682Z,1022.38
2018-09-24T04:54:24.660Z,1022.38
2018-09-24T04:55:24.636Z,1022.37
2018-09-24T04:56:24.613Z,1022.38
2018-09-24T04:57:24.591Z,1022.39
2018-09-24T04:58:24.570Z,1022.42
2018-09-24T04:59:24.555Z,1022.39
2018-09-24T05:00:24.525Z,1022.42
2018-09-24T05:01:24.509Z,1022.42
2018-09-24T05:02:24.485Z,1022.45
2018-09-24T05:03:24.462Z,1022.49
2018-09-24T05:04:24.438Z,1022.48
2018-09-24T05:05:24.419Z,1022.47
2018-09-24T05:06:24.396Z,1022.51
2018-09-24T05:07:24.377Z,1022.55
2018-09-24T05:08:24.350Z,1022.54
2018-09-24T05:09:24.329Z,1022.57
2018-09-24T05:10:24.310Z,1022.61
2018-09-24T05:11:24.286Z,1022.56
2018-09-24T05:12:24.263Z,1022.61
2018-09-24T05:13:24.241Z,1022.58
2018-09-24T05:14:24.220Z,1022.60
2018-09-24T05:15:24.200Z,1022.62
2018-09-24T05:16:24.198Z,1022.66
2018-09-24T05:17:24.156Z,1022.66
2018-09-24T05:18:24.132Z,1022.67
2018-09-24T05:19:24.108Z,1022.69
2018-09-24T05:20:24.094Z,1022.68
2018-09-24T05:21:24.064Z,1022.68
2018-09-24T05:22:24.047Z,1022.67
2018-09-24T05:23:24.024Z,1022.69
2018-09-24T05:24:24.005Z,1022.69
2018-09-24T05:25:23.976Z,1022.75
2018-09-24T05:26:23.963Z,1022.72
2018-09-24T05:27:23.961Z,1022.70
2018-09-24T05:28:23.920Z,1022.72
2018-09-24T05:29:23.890Z,1022.74
2018-09-24T05:30:23.868Z,1022.72
2018-09-24T05:31:23.848Z,1022.76
2018-09-24T05:32:23.836Z,1022.76
2018-09-24T05:33:23.798Z,1022.77
2018-09-24T05:34:23.818Z,1022.80
2018-09-24T05:35:23.756Z,1022.81
2018-09-24T05:36:23.733Z,1022.81
2018-09-24T05:37:23.732Z,1022.81
2018-09-24T05:38:23.689Z,1022.87
2018-09-24T05:39:23.768Z,1022.89
2018-09-24T05:40:23.646Z,1022.91
2018-09-24T05:41:23.662Z,1022.94
2018-09-24T05:42:23.609Z,1022.93
2018-09-24T05:43:23.578Z,1022.96
2018-09-24T05:44:23.557Z,1022.93
2018-09-24T05:45:23.534Z,1022.92
2018-09-24T05:46:23.511Z,1022.95
2018-09-24T05:47:23.489Z,1022.99
2018-09-24T05:48:23.466Z,1023.01
2018-09-24T05:49:23.449Z,1023.02
2018-09-24T05:50:23.423Z,1023.03
2018-09-24T05:51:23.409Z,1023.07
2018-09-24T05:52:23.380Z,1023.12
2018-09-24T05:53:23.356Z,1023.17
2018-09-24T05:54:23.399Z,1023.15
2018-09-24T05:55:23.315Z,1023.16
2018-09-24T05:56:23.301Z,1023.18
2018-09-24T05:57:23.269Z,1023.16
2018-09-24T05:58:23.250Z,1023.12
2018-09-24T05:59:23.231Z,1023.13
2018-09-24T06:00:23.205Z,1023.14
2018-09-24T06:01:23.337Z,1023.16
2018-09-24T06:02:23.160Z,1023.21
2018-09-24T06:03:23.142Z,1023.21
2018-09-24T06:04:23.119Z,1023.24
2018-09-24T06:05:23.097Z,1023.21
2018-09-24T06:06:23.077Z,1023.23
2018-09-24T06:07:23.058Z,1023.30
2018-09-24T06:08:23.029Z,1023.28
2018-09-24T06:09:23.010Z,1023.26
2018-09-24T06:10:22.990Z,1023.30
2018-09-24T06:11:22.968Z,1023.30
2018-09-24T06:12:22.945Z,1023.35
2018-09-24T06:13:22.921Z,1023.34
2018-09-24T06:14:22.901Z,1023.37
2018-09-24T06:15:22.881Z,1023.33
2018-09-24T06:16:22.859Z,1023.39
2018-09-24T06:17:22.835Z,1023.42
2018-09-24T06:18:22.816Z,1023.37
2018-09-24T06:19:22.804Z,1023.41
2018-09-24T06:20:22.770Z,1023.47
2018-09-24T06:21:22.750Z,1023.51
2018-09-24T06:22:22.742Z,1023.50
2018-09-24T06:23:22.705Z,1023.52
2018-09-24T06:24:22.683Z,1023.54
2018-09-24T06:25:22.664Z,1023.55
2018-09-24T06:26:22.641Z,1023.54
2018-09-24T06:27:22.618Z,1023.56
2018-09-24T06:28:22.675Z,1023.60
2018-09-24T06:29:22.575Z,1023.59
2018-09-24T06:30:22.554Z,1023.61
2018-09-24T06:31:22.531Z,1023.65
2018-09-24T06:32:22.509Z,1023.62
2018-09-24T06:33:22.490Z,1023.63
2018-09-24T06:34:22.559Z,1023.69
2018-09-24T06:35:22.454Z,1023.67
2018-09-24T06:36:22.424Z,1023.70
2018-09-24T06:37:22.403Z,1023.70
2018-09-24T06:38:22.381Z,1023.73
2018-09-24T06:39:22.367Z,1023.73
2018-09-24T06:40:22.340Z,1023.75
2018-09-24T06:41:22.317Z,1023.82
2018-09-24T06:42:22.296Z,1023.77
2018-09-24T06:43:22.277Z,1023.82
2018-09-24T06:44:22.259Z,1023.81
2018-09-24T06:45:22.232Z,1023.80
2018-09-24T06:46:22.229Z,1023.82
2018-09-24T06:47:22.191Z,1023.80
2018-09-24T06:48:22.171Z,1023.82
2018-09-24T06:49:22.148Z,1023.82
2018-09-24T06:50:22.124Z,1023.83
2018-09-24T06:51:22.105Z,1023.86
2018-09-24T06:52:22.080Z,1023.86
2018-09-24T06:53:22.059Z,1023.84
2018-09-24T06:54:22.036Z,1023.87
2018-09-24T06:55:22.018Z,1023.96
2018-09-24T06:56:22.046Z,1023.95
2018-09-24T06:57:21.981Z,1023.98
2018-09-24T06:58:21.952Z,1023.98
2018-09-24T06:59:21.932Z,1024.04
2018-09-24T07:00:21.909Z,1024.03
2018-09-24T07:01:21.888Z,1024.04
2018-09-24T07:02:21.867Z,1024.04
2018-09-24T07:03:21.847Z,1024.02
2018-09-24T07:04:21.929Z,1024.07
2018-09-24T07:05:21.885Z,1024.05
2018-09-24T07:06:21.804Z,1024.07
2018-09-24T07:07:21.761Z,1024.04
2018-09-24T07:08:21.737Z,1024.09
2018-09-24T07:09:21.716Z,1024.13
2018-09-24T07:10:21.696Z,1024.10
2018-09-24T07:11:21.716Z,1024.12
2018-09-24T07:12:21.654Z,1024.12
2018-09-24T07:13:21.632Z,1024.20
2018-09-24T07:14:21.620Z,1024.17
2018-09-24T07:15:21.592Z,1024.17
2018-09-24T07:16:21.569Z,1024.18
2018-09-24T07:17:21.550Z,1024.18
2018-09-24T07:18:21.526Z,1024.24
2018-09-24T07:19:21.513Z,1024.25
2018-09-24T07:20:21.484Z,1024.32
2018-09-24T07:21:21.525Z,1024.36
2018-09-24T07:22:21.442Z,1024.40
2018-09-24T07:23:21.422Z,1024.40
2018-09-24T07:24:21.400Z,1024.45
2018-09-24T07:25:21.379Z,1024.47
2018-09-24T07:26:21.360Z,1024.50
2018-09-24T07:27:21.336Z,1024.50
2018-09-24T07:28:21.368Z,1024.51
2018-09-24T07:29:21.394Z,1024.53
2018-09-24T07:30:21.274Z,1024.54
2018-09-24T07:31:21.255Z,1024.56
2018-09-24T07:32:21.235Z,1024.60
2018-09-24T07:33:21.260Z,1024.64
2018-09-24T07:34:21.194Z,1024.65
2018-09-24T07:35:21.218Z,1024.66
2018-09-24T07:36:21.147Z,1024.58
2018-09-24T07:37:21.126Z,1024.67
2018-09-24T07:38:21.107Z,1024.70
2018-09-24T07:39:21.086Z,1024.72
2018-09-24T07:40:21.071Z,1024.74
2018-09-24T07:41:21.044Z,1024.77
2018-09-24T07:42:21.058Z,1024.74
2018-09-24T07:43:21.063Z,1024.82
2018-09-24T07:44:20.981Z,1024.86
2018-09-24T07:45:20.968Z,1024.85
2018-09-24T07:46:20.941Z,1024.86
2018-09-24T07:47:20.919Z,1024.87
2018-09-24T07:48:20.899Z,1024.89
2018-09-24T07:49:20.881Z,1024.94
2018-09-24T07:50:20.859Z,1024.89
2018-09-24T07:51:20.835Z,1024.98
2018-09-24T07:52:20.825Z,1024.98
2018-09-24T07:53:20.801Z,1024.99
2018-09-24T07:54:20.778Z,1024.99
2018-09-24T07:55:20.816Z,1024.99
2018-09-24T07:56:20.791Z,1025.00
2018-09-24T07:57:20.715Z,1024.96
2018-09-24T07:58:20.692Z,1025.07
2018-09-24T07:59:20.673Z,1025.09
2018-09-24T08:00:20.661Z,1025.09
2018-09-24T08:01:20.635Z,1025.05
2018-09-24T08:02:20.611Z,1025.08
2018-09-24T08:03:20.592Z,1025.10
2018-09-24T08:04:20.570Z,1025.14
2018-09-24T08:05:20.557Z,1025.15
2018-09-24T08:06:20.536Z,1025.22
2018-09-24T08:07:20.525Z,1025.17
2018-09-24T08:08:20.488Z,1025.18
2018-09-24T08:09:20.472Z,1025.24
2018-09-24T08:10:20.453Z,1025.24
2018-09-24T08:11:20.428Z,1025.23
2018-09-24T08:12:20.410Z,1025.23
2018-09-24T08:13:20.417Z,1025.26
2018-09-24T08:14:20.408Z,1025.25
2018-09-24T08:15:20.350Z,1025.28
2018-09-24T08:16:20.330Z,1025.28
2018-09-24T08:17:20.314Z,1025.39
2018-09-24T08:18:20.301Z,1025.37
2018-09-24T08:19:20.271Z,1025.41
2018-09-24T08:20:20.248Z,1025.38
2018-09-24T08:21:20.249Z,1025.45
2018-09-24T08:22:20.210Z,1025.43
2018-09-24T08:23:20.205Z,1025.39
2018-09-24T08:24:20.179Z,1025.42
2018-09-24T08:25:20.150Z,1025.47
2018-09-24T08:26:20.133Z,1025.46
2018-09-24T08:27:20.127Z,1025.48
2018-09-24T08:28:20.097Z,1025.49
2018-09-24T08:29:20.072Z,1025.49
2018-09-24T08:30:20.060Z,1025.55
2018-09-24T08:31:20.033Z,1025.54
2018-09-24T08:32:20.017Z,1025.59
2018-09-24T08:33:19.999Z,1025.55
2018-09-24T08:34:19.977Z,1025.57
2018-09-24T08:35:19.972Z,1025.59
2018-09-24T08:36:19.966Z,1025.66
2018-09-24T08:37:19.919Z,1025.63
2018-09-24T08:38:19.907Z,1025.64
2018-09-24T08:39:19.888Z,1025.63
2018-09-24T08:40:19.869Z,1025.63
2018-09-24T08:41:19.842Z,1025.66
2018-09-24T08:42:19.821Z,1025.59
2018-09-24T08:43:19.814Z,1025.62
2018-09-24T08:44:19.787Z,1025.66
2018-09-24T08:45:19.765Z,1025.72
2018-09-24T08:46:19.757Z,1025.66
2018-09-24T08:47:19.728Z,1025.63
2018-09-24T08:48:19.709Z,1025.69
2018-09-24T08:49:19.689Z,1025.76
2018-09-24T08:50:19.674Z,1025.72
2018-09-24T08:51:19.657Z,1025.78
2018-09-24T08:52:19.638Z,1025.74
2018-09-24T08:53:19.672Z,1025.79
2018-09-24T08:54:19.653Z,1025.86
2018-09-24T08:55:19.576Z,1025.86
2018-09-24T08:56:19.561Z,1025.91
2018-09-24T08:57:19.622Z,1025.86
2018-09-24T08:58:19.524Z,1026.02
2018-09-24T08:59:19.504Z,1025.95
2018-09-24T09:00:19.492Z,1026.12
2018-09-24T09:01:19.476Z,1026.14
2018-09-24T09:02:19.447Z,1026.10
2018-09-24T09:03:19.431Z,1026.08
2018-09-24T09:04:19.412Z,1026.18
2018-09-24T09:05:19.400Z,1026.19
2018-09-24T09:06:19.414Z,1026.10
2018-09-24T09:07:19.364Z,1026.12
2018-09-24T09:08:19.407Z,1026.12
2018-09-24T09:09:19.329Z,1026.14
2018-09-24T09:10:19.320Z,1026.10
2018-09-24T09:11:19.297Z,1026.16
2018-09-24T09:12:19.282Z,1026.16
2018-09-24T09:13:19.268Z,1026.12
2018-09-24T09:14:19.267Z,1026.15
2018-09-24T09:15:19.244Z,1026.21
2018-09-24T09:16:19.250Z,1026.21
2018-09-24T09:17:19.207Z,1026.01
2018-09-24T09:18:19.192Z,1026.10
2018-09-24T09:19:19.177Z,1026.19
2018-09-24T09:20:19.171Z,1026.13
2018-09-24T09:21:19.157Z,1026.01
2018-09-24T09:22:19.146Z,1026.06
2018-09-24T09:23:19.129Z,1026.22
2018-09-24T09:24:19.114Z,1026.10
2018-09-24T09:25:19.101Z,1026.00
2018-09-24T09:26:19.088Z,1026.05
2018-09-24T09:27:19.079Z,1026.08
2018-09-24T09:28:19.049Z,1026.11
2018-09-24T09:29:19.083Z,1026.13
2018-09-24T09:30:19.023Z,1026.21
2018-09-24T09:31:19.005Z,1026.20
2018-09-24T09:32:18.996Z,1026.35
2018-09-24T09:33:18.976Z,1026.25
2018-09-24T09:34:18.967Z,1026.23
2018-09-24T09:35:19.031Z,1026.44
2018-09-24T09:36:18.942Z,1026.48
2018-09-24T09:37:18.926Z,1026.44
2018-09-24T09:38:18.905Z,1026.60
2018-09-24T09:39:18.891Z,1026.53
2018-09-24T09:40:18.877Z,1026.63
2018-09-24T09:41:18.864Z,1026.68
2018-09-24T09:42:18.859Z,1026.43
2018-09-24T09:43:18.943Z,1026.38
2018-09-24T09:44:18.829Z,1026.35
2018-09-24T09:45:18.810Z,1026.53
2018-09-24T09:46:18.796Z,1026.69
2018-09-24T09:47:18.795Z,1026.53
2018-09-24T09:48:18.773Z,1026.66
2018-09-24T09:49:18.760Z,1026.51
2018-09-24T09:50:18.745Z,1026.76
2018-09-24T09:51:18.734Z,1026.90
2018-09-24T09:52:18.723Z,1026.85
2018-09-24T09:53:18.713Z,1026.61
2018-09-24T09:54:18.704Z,1026.44
2018-09-24T09:55:18.694Z,1026.44
2018-09-24T09:56:18.822Z,1026.61
2018-09-24T09:57:18.664Z,1026.54
2018-09-24T09:58:18.660Z,1026.54
2018-09-24T09:59:18.672Z,1026.51
2018-09-24T10:00:18.625Z,1026.49
2018-09-24T10:01:18.615Z,1026.52
2018-09-24T10:02:18.608Z,1026.93
2018-09-24T10:03:18.607Z,1026.60
2018-09-24T10:04:18.583Z,1026.55
2018-09-24T10:05:18.577Z,1026.58
2018-09-24T10:06:18.554Z,1026.46
2018-09-24T10:07:18.566Z,1026.55
2018-09-24T10:08:18.530Z,1026.63
2018-09-24T10:09:18.519Z,1026.69
2018-09-24T10:10:18.509Z,1026.57
2018-09-24T10:11:18.569Z,1026.43
2018-09-24T10:12:18.485Z,1026.47
2018-09-24T10:13:18.472Z,1026.50
2018-09-24T10:14:18.458Z,1026.57
2018-09-24T10:15:18.445Z,1026.53
2018-09-24T10:16:18.439Z,1026.44
2018-09-24T10:17:18.421Z,1026.41
2018-09-24T10:18:18.410Z,1026.38
2018-09-24T10:19:18.411Z,1026.38
2018-09-24T10:20:18.494Z,1026.35
2018-09-24T10:21:18.372Z,1026.41
2018-09-24T10:22:18.368Z,1026.47
2018-09-24T10:23:18.354Z,1026.43
2018-09-24T10:24:18.339Z,1026.43
2018-09-24T10:25:18.327Z,1026.42
2018-09-24T10:26:18.311Z,1026.50
2018-09-24T10:27:18.303Z,1026.55
2018-09-24T10:28:18.285Z,1026.53
2018-09-24T10:29:18.275Z,1026.50
2018-09-24T10:30:18.263Z,1026.62
2018-09-24T10:31:18.269Z,1026.61
2018-09-24T10:32:18.237Z,1026.56
2018-09-24T10:33:18.226Z,1026.50
2018-09-24T10:34:18.229Z,1026.60
2018-09-24T10:35:18.222Z,1026.55
2018-09-24T10:36:19.411Z,1026.49
2018-09-24T10:37:18.183Z,1026.44
2018-09-24T10:38:18.174Z,1026.48
2018-09-24T10:39:18.213Z,1026.36
2018-09-24T10:40:18.149Z,1026.36
2018-09-24T10:41:18.137Z,1026.32
2018-09-24T10:42:18.138Z,1026.46
2018-09-24T10:43:18.118Z,1026.42
2018-09-24T10:44:18.108Z,1026.45
2018-09-24T10:45:18.095Z,1026.44
2018-09-24T10:46:18.094Z,1026.52
2018-09-24T10:47:18.076Z,1026.48
2018-09-24T10:48:18.064Z,1026.39
2018-09-24T10:49:18.054Z,1026.39
2018-09-24T10:50:18.050Z,1026.43
2018-09-24T10:51:18.032Z,1026.42
2018-09-24T10:52:18.024Z,1026.43
2018-09-24T10:53:18.007Z,1026.43
2018-09-24T10:54:17.994Z,1026.45
2018-09-24T10:55:17.983Z,1026.50
2018-09-24T10:56:17.969Z,1026.47
2018-09-24T10:57:17.958Z,1026.50
2018-09-24T10:58:17.948Z,1026.49
2018-09-24T10:59:17.943Z,1026.43
2018-09-24T11:00:18.010Z,1026.46
2018-09-24T11:01:17.906Z,1026.52
2018-09-24T11:02:17.893Z,1026.59
2018-09-24T11:03:17.889Z,1026.54
2018-09-24T11:04:17.868Z,1026.50
2018-09-24T11:05:17.855Z,1026.45
2018-09-24T11:06:17.854Z,1026.49
2018-09-24T11:07:17.841Z,1026.46
2018-09-24T11:08:17.822Z,1026.55
2018-09-24T11:09:17.809Z,1026.59
2018-09-24T11:10:17.850Z,1026.51
2018-09-24T11:11:17.783Z,1026.58
2018-09-24T11:12:17.766Z,1026.58
2018-09-24T11:13:17.748Z,1026.55
2018-09-24T11:14:17.747Z,1026.53
2018-09-24T11:15:17.721Z,1026.49
2018-09-24T11:16:17.942Z,1026.53
2018-09-24T11:17:17.874Z,1026.46
2018-09-24T11:18:17.681Z,1026.43
2018-09-24T11:19:17.670Z,1026.55
2018-09-24T11:20:17.675Z,1026.56
2018-09-24T11:21:17.644Z,1026.69
2018-09-24T11:22:17.641Z,1026.87
2018-09-24T11:23:17.630Z,1027.01
2018-09-24T11:24:17.611Z,1027.00
2018-09-24T11:25:17.605Z,1027.04
2018-09-24T11:27:17.576Z,1026.70
2018-09-24T11:28:17.581Z,1027.16
2018-09-24T11:29:17.606Z,1026.73
2018-09-24T11:30:17.539Z,1026.67
2018-09-24T11:31:17.533Z,1027.09
2018-09-24T11:32:17.525Z,1027.18
2018-09-24T11:33:17.513Z,1026.94
2018-09-24T11:34:17.495Z,1026.56
2018-09-24T11:35:17.481Z,1026.56
2018-09-24T11:36:17.471Z,1026.54
2018-09-24T11:37:17.460Z,1026.53
2018-09-24T11:38:17.446Z,1026.47
2018-09-24T11:39:17.452Z,1026.51
2018-09-24T11:40:17.419Z,1026.54
2018-09-24T11:41:17.414Z,1026.53
2018-09-24T11:42:17.396Z,1026.70
2018-09-24T11:43:17.405Z,1027.11
2018-09-24T11:44:17.377Z,1026.98
2018-09-24T11:45:17.363Z,1027.11
2018-09-24T11:46:17.345Z,1026.66
2018-09-24T11:47:17.343Z,1026.52
2018-09-24T11:48:17.317Z,1026.56
2018-09-24T11:49:17.304Z,1026.56
2018-09-24T11:50:17.291Z,1026.56
2018-09-24T11:51:17.278Z,1026.53
2018-09-24T11:52:17.272Z,1026.51
2018-09-24T11:53:17.249Z,1026.53
2018-09-24T11:54:17.237Z,1026.51
2018-09-24T11:55:17.233Z,1026.64
2018-09-24T11:56:17.279Z,1026.54
2018-09-24T11:57:17.196Z,1026.53
2018-09-24T11:58:17.193Z,1026.54
2018-09-24T11:59:17.181Z,1026.52
2018-09-24T12:00:17.155Z,1026.47
2018-09-24T12:01:17.152Z,1026.62
2018-09-24T12:02:17.160Z,1026.67
2018-09-24T12:03:17.119Z,1026.62
2018-09-24T12:04:17.105Z,1026.55
2018-09-24T12:05:17.087Z,1026.54
2018-09-24T12:06:17.073Z,1026.60